createdAt,value
2024-03-18T00:00:27.232Z,14
2024-03-18T00:01:28.103Z,13
2024-03-18T00:02:27.290Z,14
2024-03-18T00:03:28.056Z,17
2024-03-18T00:04:27.242Z,14
2024-03-18T00:05:28.038Z,12
2024-03-18T00:06:27.833Z,14
2024-03-18T00:07:27.987Z,13
2024-03-18T00:08:28.103Z,13
2024-03-18T00:09:27.516Z,13
2024-03-18T00:10:27.946Z,14
2024-03-18T00:11:28.064Z,14
2024-03-18T00:12:28.146Z,14
2024-03-18T00:13:27.258Z,16
2024-03-18T00:14:27.217Z,16
2024-03-18T00:15:27.823Z,15
2024-03-18T00:16:27.875Z,14
2024-03-18T00:17:27.221Z,17
2024-03-18T00:18:27.232Z,15
2024-03-18T00:19:27.475Z,15
2024-03-18T00:20:27.748Z,14
2024-03-18T00:21:28.142Z,13
2024-03-18T00:22:27.689Z,12
2024-03-18T00:23:27.356Z,15
2024-03-18T00:24:28.011Z,15
2024-03-18T00:25:27.328Z,13
2024-03-18T00:26:27.220Z,16
2024-03-18T00:27:28.051Z,14
2024-03-18T00:28:27.511Z,16
2024-03-18T00:29:28.101Z,17
2024-03-18T00:30:27.633Z,13
2024-03-18T00:31:27.763Z,14
2024-03-18T00:32:27.640Z,15
2024-03-18T00:33:26.048Z,14
2024-03-18T00:34:27.229Z,15
2024-03-18T00:35:27.262Z,13
2024-03-18T00:36:27.879Z,16
2024-03-18T00:37:27.814Z,16
2024-03-18T00:38:27.218Z,17
2024-03-18T00:39:27.277Z,14
2024-03-18T00:40:27.962Z,17
2024-03-18T00:41:27.685Z,12
2024-03-18T00:42:27.464Z,16
2024-03-18T00:43:27.249Z,14
2024-03-18T00:44:27.272Z,17
2024-03-18T00:45:28.437Z,15
2024-03-18T00:46:27.942Z,16
2024-03-18T00:47:27.238Z,15
2024-03-18T00:48:27.886Z,16
2024-03-18T00:49:27.527Z,17
2024-03-18T00:50:27.222Z,19
2024-03-18T00:51:27.856Z,17
2024-03-18T00:52:27.624Z,18
2024-03-18T00:53:27.250Z,18
2024-03-18T00:54:27.802Z,19
2024-03-18T00:55:27.216Z,20
2024-03-18T00:56:27.816Z,19
2024-03-18T00:57:27.701Z,19
2024-03-18T00:58:27.252Z,17
2024-03-18T00:59:27.226Z,18
2024-03-18T01:00:27.219Z,17
2024-03-18T01:01:27.250Z,18
2024-03-18T01:02:27.261Z,20
2024-03-18T01:03:27.243Z,18
2024-03-18T01:04:27.231Z,20
2024-03-18T01:05:27.222Z,18
2024-03-18T01:06:27.229Z,18
2024-03-18T01:07:27.264Z,17
2024-03-18T01:08:27.239Z,19
2024-03-18T01:09:28.335Z,21
2024-03-18T01:10:27.261Z,18
2024-03-18T01:11:27.311Z,19
2024-03-18T01:12:27.227Z,20
2024-03-18T01:13:27.233Z,18
2024-03-18T01:14:27.914Z,21
2024-03-18T01:15:27.780Z,21
2024-03-18T01:16:27.689Z,22
2024-03-18T01:17:27.250Z,23
2024-03-18T01:18:27.464Z,24
2024-03-18T01:19:27.546Z,23
2024-03-18T01:20:27.244Z,23
2024-03-18T01:21:27.233Z,24
2024-03-18T01:22:27.909Z,23
2024-03-18T01:23:27.810Z,24
2024-03-18T01:24:27.664Z,29
2024-03-18T01:25:27.415Z,23
2024-03-18T01:26:27.241Z,23
2024-03-18T01:27:28.124Z,20
2024-03-18T01:28:27.375Z,21
2024-03-18T01:29:27.540Z,24
2024-03-18T01:30:27.763Z,23
2024-03-18T01:31:28.070Z,23
2024-03-18T01:32:27.265Z,25
2024-03-18T01:33:27.715Z,24
2024-03-18T01:34:27.660Z,24
2024-03-18T01:35:27.779Z,22
2024-03-18T01:36:27.263Z,20
2024-03-18T01:37:27.454Z,22
2024-03-18T01:38:28.089Z,22
2024-03-18T01:39:28.071Z,25
2024-03-18T01:40:26.068Z,23
2024-03-18T01:41:27.805Z,23
2024-03-18T01:42:27.296Z,21
2024-03-18T01:43:27.236Z,21
2024-03-18T01:44:27.440Z,22
2024-03-18T01:45:27.815Z,25
2024-03-18T01:46:27.260Z,23
2024-03-18T01:47:27.303Z,21
2024-03-18T01:48:27.268Z,25
2024-03-18T01:49:27.323Z,22
2024-03-18T01:50:27.227Z,24
2024-03-18T01:51:27.227Z,20
2024-03-18T01:52:27.292Z,23
2024-03-18T01:53:27.277Z,23
2024-03-18T01:54:27.714Z,20
2024-03-18T01:55:27.260Z,24
2024-03-18T01:56:27.219Z,23
2024-03-18T01:57:27.293Z,22
2024-03-18T01:58:27.680Z,26
2024-03-18T01:59:27.803Z,22
2024-03-18T02:00:27.999Z,24
2024-03-18T02:01:27.895Z,22
2024-03-18T02:02:27.260Z,23
2024-03-18T02:03:27.864Z,25
2024-03-18T02:04:27.428Z,23
2024-03-18T02:05:27.255Z,24
2024-03-18T02:06:27.242Z,21
2024-03-18T02:07:27.250Z,22
2024-03-18T02:08:27.241Z,21
2024-03-18T02:09:27.246Z,22
2024-03-18T02:10:28.134Z,24
2024-03-18T02:11:27.971Z,20
2024-03-18T02:12:27.262Z,22
2024-03-18T02:13:27.724Z,22
2024-03-18T02:14:27.805Z,24
2024-03-18T02:15:27.822Z,26
2024-03-18T02:16:27.237Z,25
2024-03-18T02:17:27.282Z,21
2024-03-18T02:18:27.265Z,19
2024-03-18T02:19:27.264Z,20
2024-03-18T02:20:27.336Z,20
2024-03-18T02:21:27.269Z,22
2024-03-18T02:22:27.241Z,22
2024-03-18T02:23:27.236Z,20
2024-03-18T02:24:27.242Z,21
2024-03-18T02:25:27.403Z,22
2024-03-18T02:26:27.261Z,20
2024-03-18T02:27:27.294Z,21
2024-03-18T02:28:27.340Z,25
2024-03-18T02:29:27.684Z,23
2024-03-18T02:30:27.553Z,21
2024-03-18T02:31:27.241Z,19
2024-03-18T02:32:27.610Z,21
2024-03-18T02:33:27.997Z,20
2024-03-18T02:34:27.233Z,20
2024-03-18T02:35:27.611Z,20
2024-03-18T02:36:27.922Z,20
2024-03-18T02:37:27.352Z,19
2024-03-18T02:38:27.899Z,21
2024-03-18T02:39:27.852Z,20
2024-03-18T02:40:27.756Z,22
2024-03-18T02:41:27.793Z,21
2024-03-18T02:42:27.248Z,19
2024-03-18T02:43:27.707Z,20
2024-03-18T02:44:27.847Z,21
2024-03-18T02:45:27.562Z,21
2024-03-18T02:46:27.233Z,19
2024-03-18T02:47:26.037Z,19
2024-03-18T02:48:27.779Z,21
2024-03-18T02:49:30.517Z,20
2024-03-18T02:50:27.821Z,19
2024-03-18T02:51:27.236Z,19
2024-03-18T02:52:27.228Z,21
2024-03-18T02:53:28.156Z,19
2024-03-18T02:54:27.843Z,21
2024-03-18T02:55:27.228Z,19
2024-03-18T02:56:27.250Z,21
2024-03-18T02:57:27.261Z,20
2024-03-18T02:58:28.182Z,18
2024-03-18T02:59:27.961Z,23
2024-03-18T03:00:27.878Z,19
2024-03-18T03:01:27.250Z,19
2024-03-18T03:02:27.290Z,19
2024-03-18T03:03:27.835Z,18
2024-03-18T03:04:27.502Z,17
2024-03-18T03:06:27.457Z,21
2024-03-18T03:07:28.037Z,18
2024-03-18T03:08:27.770Z,20
2024-03-18T03:09:27.237Z,18
2024-03-18T03:10:27.269Z,19
2024-03-18T03:11:27.752Z,18
2024-03-18T03:12:27.246Z,19
2024-03-18T03:13:27.262Z,19
2024-03-18T03:14:28.090Z,18
2024-03-18T03:15:27.750Z,20
2024-03-18T03:16:27.229Z,16
2024-03-18T03:17:27.702Z,18
2024-03-18T03:18:27.266Z,21
2024-03-18T03:19:28.203Z,16
2024-03-18T03:20:27.580Z,20
2024-03-18T03:21:27.236Z,19
2024-03-18T03:22:27.411Z,18
2024-03-18T03:23:28.079Z,21
2024-03-18T03:24:27.634Z,19
2024-03-18T03:25:27.717Z,18
2024-03-18T03:26:28.051Z,21
2024-03-18T03:27:27.274Z,20
2024-03-18T03:28:28.046Z,21
2024-03-18T03:29:27.253Z,22
2024-03-18T03:30:27.266Z,23
2024-03-18T03:31:27.821Z,21
2024-03-18T03:32:27.675Z,21
2024-03-18T03:33:27.248Z,19
2024-03-18T03:34:27.604Z,19
2024-03-18T03:35:27.564Z,20
2024-03-18T03:36:27.758Z,19
2024-03-18T03:37:27.862Z,21
2024-03-18T03:38:28.819Z,20
2024-03-18T03:39:27.847Z,19
2024-03-18T03:40:27.343Z,20
2024-03-18T03:41:27.249Z,19
2024-03-18T03:42:27.334Z,17
2024-03-18T03:43:27.737Z,16
2024-03-18T03:44:27.571Z,19
2024-03-18T03:45:27.711Z,17
2024-03-18T03:46:27.240Z,18
2024-03-18T03:47:28.131Z,19
2024-03-18T03:48:27.238Z,15
2024-03-18T03:49:27.499Z,17
2024-03-18T03:50:27.494Z,18
2024-03-18T03:51:27.268Z,18
2024-03-18T03:52:27.651Z,18
2024-03-18T03:53:27.844Z,19
2024-03-18T03:54:26.091Z,19
2024-03-18T03:55:27.254Z,18
2024-03-18T03:56:27.242Z,18
2024-03-18T03:57:27.252Z,19
2024-03-18T03:58:27.440Z,18
2024-03-18T03:59:28.023Z,18
2024-03-18T04:00:27.419Z,19
2024-03-18T04:01:27.604Z,18
2024-03-18T04:02:27.459Z,18
2024-03-18T04:03:27.228Z,17
2024-03-18T04:04:27.929Z,19
2024-03-18T04:05:27.233Z,20
2024-03-18T04:06:27.234Z,19
2024-03-18T04:07:27.238Z,17
2024-03-18T04:08:27.872Z,20
2024-03-18T04:09:27.258Z,18
2024-03-18T04:10:27.795Z,18
2024-03-18T04:11:27.916Z,20
2024-03-18T04:12:27.771Z,19
2024-03-18T04:13:27.253Z,19
2024-03-18T04:14:27.231Z,19
2024-03-18T04:15:27.230Z,20
2024-03-18T04:16:28.773Z,19
2024-03-18T04:17:27.820Z,16
2024-03-18T04:18:27.239Z,19
2024-03-18T04:19:27.279Z,17
2024-03-18T04:20:27.719Z,15
2024-03-18T04:21:27.811Z,16
2024-03-18T04:22:27.248Z,20
2024-03-18T04:23:27.699Z,19
2024-03-18T04:24:28.038Z,16
2024-03-18T04:25:27.240Z,17
2024-03-18T04:26:27.248Z,18
2024-03-18T04:27:27.668Z,17
2024-03-18T04:28:27.927Z,18
2024-03-18T04:29:27.248Z,17
2024-03-18T04:30:27.657Z,20
2024-03-18T04:31:27.254Z,19
2024-03-18T04:32:27.260Z,17
2024-03-18T04:33:27.259Z,17
2024-03-18T04:34:27.850Z,17
2024-03-18T04:35:27.256Z,19
2024-03-18T04:36:27.464Z,17
2024-03-18T04:37:27.248Z,17
2024-03-18T04:38:27.251Z,17
2024-03-18T04:39:27.222Z,16
2024-03-18T04:40:27.235Z,15
2024-03-18T04:41:27.258Z,17
2024-03-18T04:42:27.971Z,19
2024-03-18T04:43:27.257Z,16
2024-03-18T04:44:27.400Z,18
2024-03-18T04:45:27.281Z,15
2024-03-18T04:46:27.842Z,17
2024-03-18T04:47:27.275Z,19
2024-03-18T04:48:27.237Z,19
2024-03-18T04:49:27.338Z,18
2024-03-18T04:51:27.247Z,15
2024-03-18T04:52:27.235Z,15
2024-03-18T04:53:27.272Z,16
2024-03-18T04:54:27.731Z,17
2024-03-18T04:55:27.349Z,15
2024-03-18T04:56:27.238Z,17
2024-03-18T04:57:27.571Z,16
2024-03-18T04:58:27.607Z,16
2024-03-18T04:59:27.274Z,15
2024-03-18T05:00:27.561Z,17
2024-03-18T05:01:26.056Z,18
2024-03-18T05:02:27.272Z,15
2024-03-18T05:03:27.243Z,15
2024-03-18T05:04:27.775Z,16
2024-03-18T05:05:27.250Z,15
2024-03-18T05:06:27.833Z,14
2024-03-18T05:07:27.645Z,16
2024-03-18T05:08:27.411Z,17
2024-03-18T05:09:27.880Z,17
2024-03-18T05:10:27.320Z,17
2024-03-18T05:11:27.832Z,18
2024-03-18T05:12:27.251Z,17
2024-03-18T05:13:27.844Z,16
2024-03-18T05:14:27.706Z,18
2024-03-18T05:15:27.234Z,16
2024-03-18T05:16:27.318Z,14
2024-03-18T05:17:27.974Z,17
2024-03-18T05:18:27.295Z,17
2024-03-18T05:19:27.617Z,16
2024-03-18T05:20:27.327Z,13
2024-03-18T05:21:27.625Z,15
2024-03-18T05:22:27.654Z,15
2024-03-18T05:23:27.264Z,16
2024-03-18T05:24:27.247Z,14
2024-03-18T05:25:27.650Z,16
2024-03-18T05:26:27.397Z,16
2024-03-18T05:27:27.749Z,16
2024-03-18T05:28:27.293Z,16
2024-03-18T05:29:27.244Z,15
2024-03-18T05:30:27.275Z,17
2024-03-18T05:31:27.239Z,16
2024-03-18T05:32:28.260Z,16
2024-03-18T05:33:27.502Z,18
2024-03-18T05:34:27.251Z,17
2024-03-18T05:35:27.754Z,16
2024-03-18T05:36:27.260Z,15
2024-03-18T05:37:27.804Z,16
2024-03-18T05:38:27.310Z,14
2024-03-18T05:39:27.234Z,15
2024-03-18T05:40:27.744Z,17
2024-03-18T05:41:27.429Z,16
2024-03-18T05:42:28.186Z,15
2024-03-18T05:43:27.655Z,15
2024-03-18T05:44:27.996Z,16
2024-03-18T05:45:27.935Z,15
2024-03-18T05:46:27.269Z,13
2024-03-18T05:47:27.310Z,16
2024-03-18T05:48:27.818Z,15
2024-03-18T05:49:27.281Z,13
2024-03-18T05:50:27.825Z,14
2024-03-18T05:51:28.097Z,14
2024-03-18T05:52:27.246Z,15
2024-03-18T05:53:27.916Z,12
2024-03-18T05:54:27.910Z,13
2024-03-18T05:55:28.017Z,14
2024-03-18T05:56:27.993Z,14
2024-03-18T05:57:27.291Z,15
2024-03-18T05:58:27.954Z,16
2024-03-18T05:59:27.770Z,14
2024-03-18T06:00:27.252Z,17
2024-03-18T06:01:27.240Z,15
2024-03-18T06:02:27.284Z,15
2024-03-18T06:03:27.258Z,16
2024-03-18T06:04:27.302Z,16
2024-03-18T06:05:27.519Z,13
2024-03-18T06:06:27.240Z,14
2024-03-18T06:07:28.084Z,15
2024-03-18T06:08:26.175Z,16
2024-03-18T06:09:29.228Z,15
2024-03-18T06:10:27.600Z,13
2024-03-18T06:11:27.273Z,15
2024-03-18T06:12:27.966Z,14
2024-03-18T06:13:27.577Z,12
2024-03-18T06:14:27.260Z,13
2024-03-18T06:15:27.247Z,13
2024-03-18T06:16:27.666Z,11
2024-03-18T06:17:27.732Z,15
2024-03-18T06:18:27.239Z,14
2024-03-18T06:19:27.280Z,14
2024-03-18T06:20:27.594Z,13
2024-03-18T06:21:27.248Z,12
2024-03-18T06:22:27.604Z,14
2024-03-18T06:23:27.970Z,13
2024-03-18T06:24:27.256Z,13
2024-03-18T06:25:27.244Z,12
2024-03-18T06:26:28.026Z,14
2024-03-18T06:27:27.803Z,17
2024-03-18T06:28:27.553Z,15
2024-03-18T06:29:27.254Z,15
2024-03-18T06:30:27.926Z,15
2024-03-18T06:31:27.246Z,17
2024-03-18T06:32:27.692Z,17
2024-03-18T06:33:27.262Z,19
2024-03-18T06:34:27.245Z,17
2024-03-18T06:35:27.694Z,19
2024-03-18T06:36:27.668Z,17
2024-03-18T06:37:27.386Z,20
2024-03-18T06:38:27.659Z,21
2024-03-18T06:39:27.256Z,18
2024-03-18T06:40:27.424Z,18
2024-03-18T06:41:27.240Z,16
2024-03-18T06:42:27.749Z,14
2024-03-18T06:43:27.248Z,15
2024-03-18T06:44:27.325Z,16
2024-03-18T06:45:27.396Z,16
2024-03-18T06:46:28.101Z,18
2024-03-18T06:47:27.429Z,17
2024-03-18T06:48:27.240Z,21
2024-03-18T06:49:27.254Z,21
2024-03-18T06:50:27.703Z,20
2024-03-18T06:51:27.812Z,15
2024-03-18T06:52:27.251Z,17
2024-03-18T06:53:27.280Z,18
2024-03-18T06:54:27.246Z,16
2024-03-18T06:55:27.247Z,13
2024-03-18T06:56:27.709Z,15
2024-03-18T06:57:27.573Z,13
2024-03-18T06:58:27.247Z,13
2024-03-18T06:59:28.079Z,14
2024-03-18T07:00:27.479Z,14
2024-03-18T07:01:27.974Z,14
2024-03-18T07:02:27.277Z,14
2024-03-18T07:03:27.966Z,12
2024-03-18T07:04:27.426Z,12
2024-03-18T07:05:27.785Z,16
2024-03-18T07:06:27.336Z,14
2024-03-18T07:07:27.237Z,13
2024-03-18T07:08:27.266Z,13
2024-03-18T07:09:27.889Z,16
2024-03-18T07:10:27.277Z,14
2024-03-18T07:11:27.282Z,13
2024-03-18T07:12:27.258Z,16
2024-03-18T07:13:27.911Z,16
2024-03-18T07:14:27.270Z,16
2024-03-18T07:15:26.120Z,14
2024-03-18T07:16:27.244Z,13
2024-03-18T07:17:27.552Z,14
2024-03-18T07:18:27.750Z,15
2024-03-18T07:19:28.063Z,14
2024-03-18T07:20:42.207Z,16
2024-03-18T07:21:27.459Z,13
2024-03-18T07:22:27.260Z,12
2024-03-18T07:23:27.850Z,15
2024-03-18T07:24:27.322Z,13
2024-03-18T07:25:27.729Z,14
2024-03-18T07:26:27.540Z,16
2024-03-18T07:27:27.299Z,15
2024-03-18T07:28:27.297Z,15
2024-03-18T07:29:27.275Z,16
2024-03-18T07:30:27.662Z,15
2024-03-18T07:31:27.886Z,14
2024-03-18T07:32:27.278Z,16
2024-03-18T07:33:27.624Z,16
2024-03-18T07:34:27.251Z,15
2024-03-18T07:35:27.280Z,15
2024-03-18T07:36:27.586Z,14
2024-03-18T07:37:27.331Z,16
2024-03-18T07:38:28.123Z,16
2024-03-18T07:39:27.261Z,14
2024-03-18T07:40:27.266Z,15
2024-03-18T07:41:27.918Z,16
2024-03-18T07:42:27.443Z,17
2024-03-18T07:43:27.281Z,13
2024-03-18T07:44:27.613Z,16
2024-03-18T07:45:27.269Z,15
2024-03-18T07:46:28.130Z,14
2024-03-18T07:47:28.228Z,14
2024-03-18T07:48:27.275Z,16
2024-03-18T07:49:27.683Z,17
2024-03-18T07:50:27.548Z,15
2024-03-18T07:51:27.329Z,14
2024-03-18T07:52:27.664Z,17
2024-03-18T07:53:27.314Z,15
2024-03-18T07:54:27.324Z,13
2024-03-18T07:55:27.865Z,13
2024-03-18T07:56:27.334Z,12
2024-03-18T07:57:27.286Z,14
2024-03-18T07:58:27.277Z,14
2024-03-18T07:59:29.378Z,12
2024-03-18T08:00:27.289Z,14
2024-03-18T08:01:27.296Z,13
2024-03-18T08:02:27.282Z,14
2024-03-18T08:03:27.244Z,15
2024-03-18T08:04:27.893Z,13
2024-03-18T08:05:28.334Z,13
2024-03-18T08:06:27.988Z,13
2024-03-18T08:07:28.014Z,13
2024-03-18T08:08:27.261Z,16
2024-03-18T08:09:27.244Z,15
2024-03-18T08:10:27.293Z,14
2024-03-18T08:11:27.246Z,15
2024-03-18T08:12:29.586Z,14
2024-03-18T08:13:27.513Z,17
2024-03-18T08:14:27.570Z,14
2024-03-18T08:15:27.457Z,14
2024-03-18T08:16:27.257Z,13
2024-03-18T08:17:27.303Z,12
2024-03-18T08:18:28.034Z,13
2024-03-18T08:19:27.636Z,12
2024-03-18T08:20:27.632Z,15
2024-03-18T08:21:27.801Z,13
2024-03-18T08:22:26.090Z,14
2024-03-18T08:23:27.244Z,13
2024-03-18T08:24:27.978Z,15
2024-03-18T08:25:28.054Z,13
2024-03-18T08:26:27.936Z,14
2024-03-18T08:27:27.289Z,12
2024-03-18T08:28:27.477Z,13
2024-03-18T08:29:27.393Z,12
2024-03-18T08:30:27.703Z,12
2024-03-18T08:31:27.264Z,11
2024-03-18T08:32:27.269Z,12
2024-03-18T08:33:38.169Z,11
2024-03-18T08:34:27.655Z,11
2024-03-18T08:35:27.479Z,12
2024-03-18T08:36:27.740Z,12
2024-03-18T08:37:28.884Z,13
2024-03-18T08:38:27.411Z,12
2024-03-18T08:39:27.953Z,11
2024-03-18T08:40:27.900Z,13
2024-03-18T08:41:27.425Z,13
2024-03-18T08:42:27.628Z,12
2024-03-18T08:43:27.308Z,12
2024-03-18T08:44:28.117Z,14
2024-03-18T08:45:27.282Z,13
2024-03-18T08:46:27.809Z,12
2024-03-18T08:47:28.117Z,14
2024-03-18T08:48:27.956Z,14
2024-03-18T08:49:27.879Z,13
2024-03-18T08:50:27.294Z,14
2024-03-18T08:51:27.249Z,13
2024-03-18T08:52:27.740Z,13
2024-03-18T08:53:27.984Z,13
2024-03-18T08:54:27.398Z,14
2024-03-18T08:55:27.795Z,16
2024-03-18T08:56:27.905Z,13
2024-03-18T08:57:27.638Z,15
2024-03-18T08:58:37.778Z,12
2024-03-18T08:59:27.602Z,12
2024-03-18T09:00:28.139Z,11
2024-03-18T09:01:27.307Z,11
2024-03-18T09:02:27.779Z,10
2024-03-18T09:03:28.012Z,11
2024-03-18T09:04:27.267Z,9
2024-03-18T09:05:27.307Z,12
2024-03-18T09:06:27.280Z,12
2024-03-18T09:07:27.264Z,10
2024-03-18T09:08:28.133Z,9
2024-03-18T09:09:27.275Z,12
2024-03-18T09:10:29.471Z,9
2024-03-18T09:11:27.312Z,11
2024-03-18T09:12:27.309Z,11
2024-03-18T09:13:27.282Z,11
2024-03-18T09:14:27.779Z,9
2024-03-18T09:15:27.801Z,12
2024-03-18T09:16:27.493Z,13
2024-03-18T09:17:27.614Z,11
2024-03-18T09:18:27.260Z,10
2024-03-18T09:19:27.546Z,11
2024-03-18T09:20:27.299Z,11
2024-03-18T09:21:27.261Z,9
2024-03-18T09:22:27.303Z,10
2024-03-18T09:23:27.497Z,10
2024-03-18T09:24:27.328Z,10
2024-03-18T09:25:28.117Z,8
2024-03-18T09:26:27.293Z,9
2024-03-18T09:27:27.962Z,8
2024-03-18T09:28:27.344Z,9
2024-03-18T09:29:26.800Z,7
2024-03-18T09:30:27.339Z,8
2024-03-18T09:31:27.344Z,9
2024-03-18T09:32:27.570Z,9
2024-03-18T09:33:28.019Z,6
2024-03-18T09:34:27.789Z,6
2024-03-18T09:35:27.348Z,6
2024-03-18T09:36:27.354Z,7
2024-03-18T09:37:27.283Z,7
2024-03-18T09:38:27.445Z,7
2024-03-18T09:39:27.267Z,9
2024-03-18T09:40:27.747Z,9
2024-03-18T09:41:28.016Z,8
2024-03-18T09:42:27.959Z,8
2024-03-18T09:43:27.304Z,7
2024-03-18T09:44:27.307Z,7
2024-03-18T09:45:27.863Z,7
2024-03-18T09:46:27.275Z,9
2024-03-18T09:47:35.358Z,8
2024-03-18T09:48:27.294Z,7
2024-03-18T09:49:28.086Z,8
2024-03-18T09:50:27.991Z,7
2024-03-18T09:51:27.937Z,10
2024-03-18T09:52:27.287Z,9
2024-03-18T09:53:27.782Z,8
2024-03-18T09:54:27.284Z,9
2024-03-18T09:55:27.269Z,6
2024-03-18T09:56:27.257Z,7
2024-03-18T09:57:27.404Z,7
2024-03-18T09:58:27.275Z,7
2024-03-18T09:59:27.362Z,6
2024-03-18T10:00:27.311Z,8
2024-03-18T10:01:27.328Z,6
2024-03-18T10:02:28.190Z,7
2024-03-18T10:03:27.797Z,7
2024-03-18T10:04:27.374Z,9
2024-03-18T10:05:27.341Z,7
2024-03-18T10:06:27.288Z,7
2024-03-18T10:07:27.285Z,8
2024-03-18T10:08:27.289Z,9
2024-03-18T10:09:27.272Z,9
2024-03-18T10:10:27.875Z,8
2024-03-18T10:11:27.299Z,11
2024-03-18T10:12:28.150Z,10
2024-03-18T10:13:27.281Z,8
2024-03-18T10:14:27.282Z,8
2024-03-18T10:15:28.128Z,9
2024-03-18T10:16:27.337Z,8
2024-03-18T10:17:27.344Z,14
2024-03-18T10:18:27.429Z,15
2024-03-18T10:19:27.281Z,11
2024-03-18T10:20:27.503Z,10
2024-03-18T10:21:27.932Z,12
2024-03-18T10:22:27.327Z,9
2024-03-18T10:23:27.287Z,10
2024-03-18T10:24:27.856Z,12
2024-03-18T10:25:27.586Z,13
2024-03-18T10:26:27.975Z,13
2024-03-18T10:27:27.385Z,12
2024-03-18T10:28:27.301Z,12
2024-03-18T10:29:27.775Z,12
2024-03-18T10:30:27.296Z,12
2024-03-18T10:31:27.294Z,11
2024-03-18T10:32:27.296Z,11
2024-03-18T10:33:27.630Z,11
2024-03-18T10:34:27.538Z,12
2024-03-18T10:35:27.845Z,12
2024-03-18T10:36:29.282Z,11
2024-03-18T10:37:27.299Z,15
2024-03-18T10:38:27.569Z,15
2024-03-18T10:39:27.324Z,14
2024-03-18T10:40:27.311Z,13
2024-03-18T10:41:27.264Z,14
2024-03-18T10:42:27.344Z,13
2024-03-18T10:43:27.859Z,12
2024-03-18T10:44:27.772Z,13
2024-03-18T10:45:27.838Z,13
2024-03-18T10:46:27.811Z,15
2024-03-18T10:47:28.097Z,13
2024-03-18T10:48:27.911Z,13
2024-03-18T10:49:27.300Z,11
2024-03-18T10:50:27.708Z,11
2024-03-18T10:51:27.261Z,10
2024-03-18T10:52:27.712Z,11
2024-03-18T10:53:33.470Z,14
2024-03-18T10:54:27.442Z,10
2024-03-18T10:55:28.328Z,11
2024-03-18T10:56:27.679Z,10
2024-03-18T10:57:28.357Z,12
2024-03-18T10:58:27.344Z,9
2024-03-18T10:59:27.286Z,12
2024-03-18T11:00:27.701Z,14
2024-03-18T11:01:27.327Z,13
2024-03-18T11:02:28.121Z,12
2024-03-18T11:03:27.283Z,11
2024-03-18T11:04:28.249Z,13
2024-03-18T11:05:27.914Z,12
2024-03-18T11:06:27.526Z,12
2024-03-18T11:07:28.163Z,15
2024-03-18T11:08:27.785Z,12
2024-03-18T11:09:27.327Z,12
2024-03-18T11:10:27.362Z,9
2024-03-18T11:11:27.793Z,11
2024-03-18T11:12:27.492Z,12
2024-03-18T11:13:27.516Z,10
2024-03-18T11:14:27.297Z,12
2024-03-18T11:15:27.364Z,9
2024-03-18T11:16:27.288Z,7
2024-03-18T11:17:27.309Z,10
2024-03-18T11:18:27.826Z,11
2024-03-18T11:19:27.258Z,7
2024-03-18T11:20:27.796Z,7
2024-03-18T11:21:27.297Z,8
2024-03-18T11:22:27.894Z,8
2024-03-18T11:23:27.632Z,8
2024-03-18T11:24:27.403Z,9
2024-03-18T11:25:27.843Z,8
2024-03-18T11:26:27.920Z,8
2024-03-18T11:27:27.347Z,7
2024-03-18T11:28:27.300Z,6
2024-03-18T11:29:27.281Z,8
2024-03-18T11:30:27.357Z,7
2024-03-18T11:31:27.310Z,9
2024-03-18T11:32:28.355Z,8
2024-03-18T11:33:27.748Z,8
2024-03-18T11:34:27.729Z,7
2024-03-18T11:35:27.803Z,6
2024-03-18T11:36:27.333Z,7
2024-03-18T11:37:27.401Z,6
2024-03-18T11:38:27.281Z,8
2024-03-18T11:39:27.261Z,5
2024-03-18T11:40:27.299Z,7
2024-03-18T11:41:27.288Z,7
2024-03-18T11:42:27.299Z,6
2024-03-18T11:43:26.107Z,10
2024-03-18T11:44:27.802Z,7
2024-03-18T11:45:27.317Z,7
2024-03-18T11:46:27.303Z,9
2024-03-18T11:47:27.284Z,8
2024-03-18T11:48:27.298Z,9
2024-03-18T11:49:27.262Z,8
2024-03-18T11:50:27.752Z,7
2024-03-18T11:51:27.977Z,7
2024-03-18T11:52:27.331Z,8
2024-03-18T11:53:27.331Z,5
2024-03-18T11:54:27.908Z,5
2024-03-18T11:55:27.552Z,8
2024-03-18T11:56:27.304Z,6
2024-03-18T11:57:27.359Z,5
2024-03-18T11:58:27.300Z,7
2024-03-18T11:59:28.009Z,6
2024-03-18T12:00:27.324Z,5
2024-03-18T12:01:27.763Z,6
2024-03-18T12:02:27.294Z,5
2024-03-18T12:03:27.300Z,6
2024-03-18T12:04:27.314Z,6
2024-03-18T12:05:27.633Z,6
2024-03-18T12:06:27.741Z,8
2024-03-18T12:07:27.803Z,5
2024-03-18T12:08:28.010Z,7
2024-03-18T12:09:27.787Z,7
2024-03-18T12:10:27.702Z,5
2024-03-18T12:11:27.313Z,5
2024-03-18T12:12:27.312Z,7
2024-03-18T12:13:27.360Z,5
2024-03-18T12:14:27.303Z,6
2024-03-18T12:15:27.293Z,5
2024-03-18T12:16:28.040Z,9
2024-03-18T12:17:27.765Z,5
2024-03-18T12:18:28.132Z,8
2024-03-18T12:19:27.947Z,6
2024-03-18T12:20:27.311Z,8
2024-03-18T12:21:27.959Z,5
2024-03-18T12:22:27.392Z,8
2024-03-18T12:23:27.829Z,6
2024-03-18T12:24:27.997Z,6
2024-03-18T12:25:27.301Z,5
2024-03-18T12:26:27.324Z,7
2024-03-18T12:27:27.590Z,4
2024-03-18T12:28:28.041Z,4
2024-03-18T12:29:27.558Z,4
2024-03-18T12:30:27.409Z,7
2024-03-18T12:31:28.118Z,5
2024-03-18T12:32:27.527Z,5
2024-03-18T12:33:27.293Z,4
2024-03-18T12:34:28.017Z,6
2024-03-18T12:35:27.706Z,7
2024-03-18T12:36:27.531Z,4
2024-03-18T12:37:27.760Z,3
2024-03-18T12:38:27.635Z,5
2024-03-18T12:39:27.621Z,4
2024-03-18T12:40:27.897Z,6
2024-03-18T12:41:27.885Z,4
2024-03-18T12:42:27.321Z,5
2024-03-18T12:43:27.989Z,6
2024-03-18T12:44:27.767Z,4
2024-03-18T12:45:31.068Z,4
2024-03-18T12:46:27.340Z,5
2024-03-18T12:47:27.569Z,6
2024-03-18T12:48:27.314Z,4
2024-03-18T12:49:27.322Z,4
2024-03-18T12:50:26.169Z,4
2024-03-18T12:51:28.087Z,6
2024-03-18T12:52:27.294Z,6
2024-03-18T12:53:29.862Z,6
2024-03-18T12:54:27.780Z,6
2024-03-18T12:55:27.900Z,5
2024-03-18T12:56:27.935Z,4
2024-03-18T12:57:27.310Z,6
2024-03-18T12:58:27.364Z,6
2024-03-18T12:59:27.418Z,3
2024-03-18T13:00:27.446Z,4
2024-03-18T13:01:27.310Z,7
2024-03-18T13:02:27.293Z,5
2024-03-18T13:03:27.410Z,4
2024-03-18T13:04:27.409Z,5
2024-03-18T13:05:27.666Z,7
2024-03-18T13:06:27.314Z,7
2024-03-18T13:07:27.294Z,6
2024-03-18T13:08:27.925Z,9
2024-03-18T13:09:27.433Z,6
2024-03-18T13:10:28.025Z,8
2024-03-18T13:11:27.296Z,8
2024-03-18T13:12:27.681Z,10
2024-03-18T13:13:27.310Z,6
2024-03-18T13:14:27.774Z,5
2024-03-18T13:15:27.312Z,7
2024-03-18T13:16:27.751Z,5
2024-03-18T13:17:34.273Z,8
2024-03-18T13:18:27.311Z,6
2024-03-18T13:19:27.570Z,6
2024-03-18T13:20:27.649Z,7
2024-03-18T13:21:27.301Z,6
2024-03-18T13:22:28.064Z,6
2024-03-18T13:23:27.912Z,5
2024-03-18T13:24:27.771Z,6
2024-03-18T13:25:27.277Z,5
2024-03-18T13:26:27.294Z,4
2024-03-18T13:27:27.670Z,3
2024-03-18T13:28:27.287Z,5
2024-03-18T13:29:27.435Z,5
2024-03-18T13:30:27.407Z,6
2024-03-18T13:31:27.743Z,5
2024-03-18T13:32:27.315Z,6
2024-03-18T13:33:27.935Z,5
2024-03-18T13:34:27.307Z,4
2024-03-18T13:35:28.058Z,5
2024-03-18T13:36:27.959Z,4
2024-03-18T13:37:28.096Z,6
2024-03-18T13:38:27.750Z,5
2024-03-18T13:39:27.912Z,6
2024-03-18T13:40:27.868Z,6
2024-03-18T13:41:27.322Z,6
2024-03-18T13:42:27.597Z,6
2024-03-18T13:43:28.082Z,5
2024-03-18T13:44:27.332Z,6
2024-03-18T13:45:27.412Z,5
2024-03-18T13:46:27.270Z,4
2024-03-18T13:47:27.624Z,6
2024-03-18T13:48:27.311Z,5
2024-03-18T13:49:28.375Z,6
2024-03-18T13:50:27.286Z,3
2024-03-18T13:51:27.877Z,4
2024-03-18T13:52:27.280Z,7
2024-03-18T13:53:27.745Z,6
2024-03-18T13:54:27.850Z,5
2024-03-18T13:55:27.373Z,8
2024-03-18T13:56:28.122Z,6
2024-03-18T13:57:27.069Z,5
2024-03-18T13:58:27.316Z,4
2024-03-18T13:59:28.351Z,5
2024-03-18T14:00:27.303Z,6
2024-03-18T14:01:27.524Z,8
2024-03-18T14:02:27.328Z,5
2024-03-18T14:03:27.323Z,6
2024-03-18T14:04:27.314Z,6
2024-03-18T14:05:27.412Z,10
2024-03-18T14:06:27.535Z,7
2024-03-18T14:07:27.755Z,6
2024-03-18T14:08:27.295Z,7
2024-03-18T14:09:28.024Z,6
2024-03-18T14:10:30.827Z,6
2024-03-18T14:11:27.300Z,6
2024-03-18T14:12:27.400Z,6
2024-03-18T14:13:28.218Z,4
2024-03-18T14:14:27.628Z,7
2024-03-18T14:15:27.315Z,6
2024-03-18T14:16:27.971Z,9
2024-03-18T14:17:28.137Z,5
2024-03-18T14:18:27.309Z,6
2024-03-18T14:19:28.249Z,11
2024-03-18T14:20:27.314Z,7
2024-03-18T14:21:28.041Z,5
2024-03-18T14:22:27.938Z,4
2024-03-18T14:23:27.561Z,8
2024-03-18T14:24:27.748Z,5
2024-03-18T14:25:27.313Z,9
2024-03-18T14:26:27.754Z,6